Time;durP1;ratioP1;P1;durP2;ratioP2;P2;SDS_P1;SDS_P2;PMS_P1;PMS_P2;Temp;Humidity;BMP_temperature;BMP_pressure;BME280_temperature;BME280_humidity;BME280_pressure;Samples;Min_cycle;Max_cycle;Signal;HPM_P1;HPM_P2
2023/12/17 00:01:13;;;;;;;15.30;12.33;;;10.40;99.90;;;;;;5092614;28;20630;-69
2023/12/17 00:03:38;;;;;;;13.47;12.07;;;10.40;99.90;;;;;;5093250;28;20172;-70
2023/12/17 00:06:04;;;;;;;14.87;13.10;;;10.40;99.90;;;;;;5093349;28;20263;-70
2023/12/17 00:08:30;;;;;;;13.63;12.03;;;10.40;99.90;;;;;;5093022;28;20170;-70
2023/12/17 00:10:55;;;;;;;14.87;12.40;;;10.40;99.90;;;;;;5093002;28;20210;-69
2023/12/17 00:13:21;;;;;;;16.27;12.90;;;10.30;99.90;;;;;;5093082;28;20516;-69
2023/12/17 00:15:47;;;;;;;15.40;12.43;;;10.30;99.90;;;;;;5074695;28;20570;-69
2023/12/17 00:18:12;;;;;;;14.67;12.67;;;10.40;99.90;;;;;;5093176;28;20198;-69
2023/12/17 00:20:38;;;;;;;15.03;12.37;;;10.40;99.90;;;;;;5074955;28;20171;-70
2023/12/17 00:23:04;;;;;;;14.20;12.70;;;10.40;99.90;;;;;;5093174;28;20175;-70
2023/12/17 00:25:31;;;;;;;14.87;13.17;;;10.50;99.90;;;;;;5093114;28;20176;-69
2023/12/17 00:27:56;;;;;;;16.60;12.63;;;10.40;99.90;;;;;;5092593;28;20266;-69
2023/12/17 00:30:22;;;;;;;14.77;13.17;;;10.40;99.90;;;;;;5092454;28;20242;-69
2023/12/17 00:32:48;;;;;;;14.10;12.70;;;10.40;99.90;;;;;;5093147;28;20180;-69
2023/12/17 00:35:13;;;;;;;14.03;12.43;;;10.40;99.90;;;;;;5093088;28;20218;-70
2023/12/17 00:37:39;;;;;;;17.63;12.67;;;10.40;99.90;;;;;;5093008;28;20217;-70
2023/12/17 00:40:06;;;;;;;16.20;12.97;;;10.40;99.90;;;;;;5092824;28;20203;-70
2023/12/17 00:42:32;;;;;;;18.00;13.30;;;10.40;99.90;;;;;;5092764;28;20311;-69
2023/12/17 00:44:57;;;;;;;18.40;13.50;;;10.50;99.90;;;;;;5092767;28;20666;-70
2023/12/17 00:47:23;;;;;;;18.17;13.50;;;10.60;99.90;;;;;;5092720;28;20173;-69
2023/12/17 00:49:49;;;;;;;18.03;13.40;;;10.50;99.90;;;;;;5092638;28;20215;-69
2023/12/17 00:52:14;;;;;;;17.13;13.43;;;10.50;99.90;;;;;;5092718;28;20176;-69
2023/12/17 00:54:40;;;;;;;15.67;12.73;;;10.50;99.90;;;;;;5093688;28;20179;-69
2023/12/17 00:57:05;;;;;;;16.60;12.93;;;10.40;99.90;;;;;;5096632;28;20229;-69
2023/12/17 00:59:31;;;;;;;16.87;13.03;;;10.50;99.90;;;;;;5096113;28;20168;-69
2023/12/17 01:01:56;;;;;;;15.80;12.80;;;10.50;99.90;;;;;;5078362;28;20176;-69
2023/12/17 01:04:22;;;;;;;14.60;12.10;;;10.30;99.90;;;;;;5096605;28;20168;-68
2023/12/17 01:06:47;;;;;;;14.63;12.17;;;10.40;99.90;;;;;;5096515;28;20215;-68
2023/12/17 01:09:13;;;;;;;15.77;12.30;;;10.40;99.90;;;;;;5096510;28;20195;-69
2023/12/17 01:11:38;;;;;;;15.40;11.90;;;10.50;99.90;;;;;;5096331;28;20184;-69
2023/12/17 01:14:04;;;;;;;14.77;12.17;;;10.50;99.90;;;;;;5095826;28;20184;-70
2023/12/17 01:16:30;;;;;;;13.23;11.63;;;10.50;99.90;;;;;;5096465;28;20201;-69
2023/12/17 01:18:56;;;;;;;17.27;12.13;;;10.40;99.90;;;;;;5096073;28;20267;-69
2023/12/17 01:21:21;;;;;;;15.70;11.60;;;10.40;99.90;;;;;;5096246;28;20254;-69
2023/12/17 01:23:47;;;;;;;14.33;11.27;;;10.40;99.90;;;;;;5096158;28;20176;-70
2023/12/17 01:26:20;;;;;;;14.03;12.30;;;10.40;99.90;;;;;;5095715;28;20657;-68
2023/12/17 01:28:46;;;;;;;13.43;11.47;;;10.40;99.90;;;;;;5095757;28;20255;-69
2023/12/17 01:31:14;;;;;;;14.87;12.20;;;10.40;99.90;;;;;;5077741;28;20602;-69
2023/12/17 01:33:39;;;;;;;14.77;12.17;;;10.40;99.90;;;;;;5096036;28;20176;-68
2023/12/17 01:36:05;;;;;;;18.47;12.67;;;10.20;99.90;;;;;;5095943;28;20168;-69
2023/12/17 01:38:31;;;;;;;14.60;12.50;;;10.30;99.90;;;;;;5095907;28;20255;-68
2023/12/17 01:40:56;;;;;;;14.57;12.60;;;10.20;99.90;;;;;;5095646;28;20254;-69
2023/12/17 01:43:22;;;;;;;14.73;12.10;;;10.20;99.90;;;;;;5095513;28;20204;-69
2023/12/17 01:45:48;;;;;;;17.20;12.87;;;10.10;99.90;;;;;;5095822;28;20249;-70
2023/12/17 01:48:13;;;;;;;15.57;13.07;;;10.10;99.90;;;;;;5095692;28;20168;-70
2023/12/17 01:50:39;;;;;;;15.97;13.47;;;10.10;99.90;;;;;;5095520;28;20215;-69
2023/12/17 01:53:05;;;;;;;15.10;12.37;;;10.10;99.90;;;;;;5095645;28;20689;-69
2023/12/17 01:55:30;;;;;;;19.30;14.13;;;10.10;99.90;;;;;;5095542;28;20203;-68
2023/12/17 01:57:57;;;;;;;20.57;14.27;;;10.00;99.90;;;;;;5095274;28;20179;-68
2023/12/17 02:00:24;;;;;;;16.40;13.67;;;10.10;99.90;;;;;;5095335;28;20232;-69
2023/12/17 02:02:50;;;;;;;17.13;14.07;;;10.20;99.90;;;;;;5095341;28;20207;-69
2023/12/17 02:05:16;;;;;;;15.77;13.37;;;10.20;99.90;;;;;;5095279;28;20529;-69
2023/12/17 02:07:41;;;;;;;17.63;14.00;;;10.30;99.90;;;;;;5094345;28;20251;-69
2023/12/17 02:10:08;;;;;;;17.37;13.90;;;10.30;99.90;;;;;;5094964;28;20569;-70
2023/12/17 02:12:33;;;;;;;20.57;14.13;;;10.20;99.90;;;;;;5094914;28;20180;-69
2023/12/17 02:14:59;;;;;;;17.63;13.07;;;10.20;99.90;;;;;;5095065;28;20184;-69
2023/12/17 02:17:29;;;;;;;17.23;13.70;;;10.00;99.90;;;;;;5094907;28;20221;-68
2023/12/17 02:19:55;;;;;;;19.93;14.23;;;9.90;99.90;;;;;;5076849;28;20179;-68
2023/12/17 02:22:25;;;;;;;18.47;13.37;;;10.00;99.90;;;;;;5094967;28;20255;-68
2023/12/17 02:24:51;;;;;;;17.47;13.73;;;10.00;99.90;;;;;;5094794;28;20640;-68
2023/12/17 02:27:21;;;;;;;18.20;13.33;;;10.00;99.90;;;;;;5094247;28;20745;-68
2023/12/17 02:29:47;;;;;;;18.43;14.03;;;9.90;99.90;;;;;;5094678;28;20230;-69
2023/12/17 02:32:14;;;;;;;19.00;14.00;;;10.00;99.90;;;;;;5094900;28;20667;-68
2023/12/17 02:34:40;;;;;;;17.67;13.33;;;9.90;99.90;;;;;;5094898;28;20184;-68
2023/12/17 02:37:05;;;;;;;16.50;13.20;;;9.80;99.90;;;;;;5094613;28;20171;-68
2023/12/17 02:39:31;;;;;;;19.73;13.70;;;9.80;99.90;;;;;;5094597;28;20258;-69
2023/12/17 02:41:58;;;;;;;18.53;13.70;;;9.90;99.90;;;;;;5094211;28;20670;-69
2023/12/17 02:44:24;;;;;;;17.43;13.20;;;9.90;99.90;;;;;;5094669;28;20210;-69
2023/12/17 02:46:49;;;;;;;18.50;14.10;;;10.00;99.90;;;;;;5094440;28;20180;-68
2023/12/17 02:49:15;;;;;;;17.50;13.93;;;9.90;99.90;;;;;;5094366;28;20191;-68
2023/12/17 02:51:40;;;;;;;18.73;13.60;;;9.90;99.90;;;;;;5094566;28;20167;-68
2023/12/17 02:54:06;;;;;;;18.63;13.00;;;9.90;99.90;;;;;;5094322;28;20180;-69
2023/12/17 02:56:41;;;;;;;16.17;13.10;;;9.80;99.90;;;;;;5094271;28;20178;-69
2023/12/17 02:59:10;;;;;;;17.83;13.40;;;9.80;99.90;;;;;;5094334;28;20168;-69
2023/12/17 03:01:37;;;;;;;15.07;12.27;;;9.80;99.90;;;;;;5094046;28;20229;-69
2023/12/17 03:04:03;;;;;;;14.40;11.97;;;9.80;99.90;;;;;;5094200;28;20618;-68
2023/12/17 03:06:29;;;;;;;15.53;12.13;;;9.70;99.90;;;;;;5093956;28;20183;-67
2023/12/17 03:08:55;;;;;;;15.53;12.03;;;9.80;99.90;;;;;;5094221;28;20167;-69
2023/12/17 03:11:20;;;;;;;16.63;11.40;;;9.70;99.90;;;;;;5093826;28;20167;-68
2023/12/17 03:13:46;;;;;;;12.53;11.13;;;9.60;99.90;;;;;;5094032;28;20624;-68
2023/12/17 03:16:11;;;;;;;14.97;12.13;;;9.60;99.90;;;;;;5093963;28;20245;-69
2023/12/17 03:18:37;;;;;;;17.40;12.80;;;9.60;99.90;;;;;;5093838;28;20184;-69
2023/12/17 03:21:05;;;;;;;16.63;12.20;;;9.70;99.90;;;;;;5093779;28;20180;-70
2023/12/17 03:23:31;;;;;;;14.53;12.17;;;9.70;99.90;;;;;;5093925;28;20619;-69
2023/12/17 03:25:56;;;;;;;13.40;11.37;;;9.60;99.90;;;;;;5093612;28;20179;-68
2023/12/17 03:28:22;;;;;;;15.70;12.10;;;9.60;99.90;;;;;;5093539;28;20241;-68
2023/12/17 03:30:47;;;;;;;15.80;11.73;;;9.50;99.90;;;;;;5093727;28;20196;-69
2023/12/17 03:33:13;;;;;;;15.03;11.87;;;9.40;99.90;;;;;;5093719;28;20164;-70
2023/12/17 03:35:39;;;;;;;12.97;10.97;;;9.40;99.90;;;;;;5075611;28;20180;-67
2023/12/17 03:38:05;;;;;;;13.33;11.03;;;9.40;99.90;;;;;;5093788;28;20195;-68
2023/12/17 03:40:31;;;;;;;14.10;11.53;;;9.50;99.90;;;;;;5093278;28;20171;-68
2023/12/17 03:42:56;;;;;;;13.57;11.27;;;9.50;99.90;;;;;;5093590;28;20297;-69
2023/12/17 03:45:22;;;;;;;14.23;11.67;;;9.50;99.90;;;;;;5093666;28;20297;-69
2023/12/17 03:47:48;;;;;;;14.23;10.87;;;9.40;99.90;;;;;;5093531;28;20225;-69
2023/12/17 03:50:18;;;;;;;16.60;12.03;;;9.40;99.90;;;;;;5093276;28;20207;-69
2023/12/17 03:52:46;;;;;;;13.37;10.70;;;9.50;99.90;;;;;;5093436;28;20172;-69
2023/12/17 03:55:11;;;;;;;12.77;11.27;;;9.50;99.90;;;;;;5093247;28;20172;-68
2023/12/17 03:57:37;;;;;;;14.07;10.90;;;9.50;99.90;;;;;;5093230;28;20659;-69
2023/12/17 04:00:03;;;;;;;14.00;11.23;;;9.40;99.90;;;;;;5093384;28;20172;-68
2023/12/17 04:02:29;;;;;;;14.87;10.07;;;9.40;99.90;;;;;;5093292;28;20171;-69
2023/12/17 04:04:55;;;;;;;15.17;11.07;;;9.40;99.90;;;;;;5093230;28;20176;-70
2023/12/17 04:07:21;;;;;;;12.27;10.13;;;9.30;99.90;;;;;;5093037;28;20222;-69
2023/12/17 04:09:47;;;;;;;15.50;10.93;;;9.40;99.90;;;;;;5093200;28;20722;-69
2023/12/17 04:12:12;;;;;;;13.00;11.00;;;9.40;99.90;;;;;;5093214;28;20255;-69
2023/12/17 04:14:39;;;;;;;12.80;10.17;;;9.40;99.90;;;;;;5092992;28;20263;-68
2023/12/17 04:17:04;;;;;;;13.77;10.50;;;9.30;99.90;;;;;;5093096;28;20187;-68
2023/12/17 04:19:30;;;;;;;12.47;10.83;;;9.30;99.90;;;;;;5092789;28;20675;-68
2023/12/17 04:21:55;;;;;;;14.37;10.97;;;9.30;99.90;;;;;;5092810;28;20635;-68
2023/12/17 04:24:21;;;;;;;13.37;10.70;;;9.30;99.90;;;;;;5093173;28;20653;-69
2023/12/17 04:26:46;;;;;;;15.83;11.43;;;9.30;99.90;;;;;;5092807;28;20571;-69
2023/12/17 04:29:12;;;;;;;14.97;10.57;;;9.30;99.90;;;;;;5092873;28;20183;-68
2023/12/17 04:31:37;;;;;;;15.60;11.40;;;9.30;99.90;;;;;;5097283;28;20168;-68
2023/12/17 04:34:03;;;;;;;15.53;11.20;;;9.20;99.90;;;;;;5096870;28;20187;-68
2023/12/17 04:36:28;;;;;;;13.90;10.53;;;9.20;99.90;;;;;;5078431;28;20178;-69
2023/12/17 04:38:54;;;;;;;13.37;10.43;;;9.20;99.90;;;;;;5096814;28;20672;-69
2023/12/17 04:41:19;;;;;;;13.47;10.07;;;9.20;99.90;;;;;;5096581;28;20172;-69
2023/12/17 04:43:45;;;;;;;14.77;10.73;;;9.20;99.90;;;;;;5096796;28;20648;-68
2023/12/17 04:46:11;;;;;;;16.70;10.97;;;9.10;99.90;;;;;;5097083;28;20718;-68
2023/12/17 04:48:36;;;;;;;16.73;11.60;;;9.20;99.90;;;;;;5096818;28;20638;-70
2023/12/17 04:51:02;;;;;;;13.40;9.93;;;9.20;99.90;;;;;;5095920;28;20203;-69
2023/12/17 04:53:28;;;;;;;14.00;11.13;;;9.10;99.90;;;;;;5096602;28;20643;-68
2023/12/17 04:55:53;;;;;;;13.07;10.43;;;9.00;99.90;;;;;;5096811;28;20627;-68
2023/12/17 04:58:19;;;;;;;11.30;9.30;;;9.10;99.90;;;;;;5096565;28;20626;-69
2023/12/17 05:00:44;;;;;;;13.40;10.30;;;9.10;99.90;;;;;;5096413;28;20172;-69
2023/12/17 05:03:10;;;;;;;14.60;10.83;;;9.10;99.90;;;;;;5096321;28;20183;-68
2023/12/17 05:05:35;;;;;;;12.43;10.00;;;9.10;99.90;;;;;;5095779;28;20631;-68
2023/12/17 05:08:01;;;;;;;14.70;10.73;;;9.10;99.90;;;;;;5096682;28;20176;-68
2023/12/17 05:10:27;;;;;;;14.90;11.30;;;9.20;99.90;;;;;;5096381;28;20215;-69
2023/12/17 05:12:55;;;;;;;17.33;12.77;;;9.10;99.90;;;;;;5096037;28;20164;-69
2023/12/17 05:15:21;;;;;;;15.63;11.37;;;9.10;99.90;;;;;;5078202;28;20532;-68
2023/12/17 05:17:47;;;;;;;16.40;12.30;;;9.10;99.90;;;;;;5096125;28;20199;-68
2023/12/17 05:20:13;;;;;;;13.93;10.90;;;9.10;99.90;;;;;;5095759;28;20176;-69
2023/12/17 05:22:38;;;;;;;17.83;10.97;;;9.10;99.90;;;;;;5095967;28;20200;-68
2023/12/17 05:25:04;;;;;;;13.47;9.83;;;9.00;99.90;;;;;;5096208;28;20176;-69
2023/12/17 05:27:29;;;;;;;12.70;9.87;;;9.00;99.90;;;;;;5095498;28;20219;-69
2023/12/17 05:29:55;;;;;;;12.13;9.93;;;8.90;99.90;;;;;;5095984;28;20210;-68
2023/12/17 05:32:21;;;;;;;13.77;10.17;;;8.80;99.90;;;;;;5096055;28;20214;-69
2023/12/17 05:34:46;;;;;;;14.67;10.47;;;8.70;99.90;;;;;;5095402;28;20611;-69
2023/12/17 05:37:12;;;;;;;14.10;10.47;;;8.80;99.90;;;;;;5095613;28;20618;-68
2023/12/17 05:39:37;;;;;;;12.10;9.07;;;8.80;99.90;;;;;;5077499;28;20508;-69
2023/12/17 05:42:03;;;;;;;12.47;9.93;;;8.70;99.90;;;;;;5093897;28;20226;-68
2023/12/17 05:44:28;;;;;;;13.27;10.10;;;8.60;99.90;;;;;;5077220;28;20591;-69
2023/12/17 05:46:54;;;;;;;15.80;10.23;;;8.70;99.90;;;;;;5095640;28;20172;-68
2023/12/17 05:49:20;;;;;;;13.77;10.70;;;8.70;99.90;;;;;;5094741;28;20214;-70
2023/12/17 05:51:45;;;;;;;17.33;12.70;;;8.60;99.90;;;;;;5095502;28;20172;-69
2023/12/17 05:54:14;;;;;;;20.50;13.20;;;8.70;99.90;;;;;;5095492;28;20266;-69
2023/12/17 05:56:41;;;;;;;20.90;13.77;;;8.70;99.90;;;;;;5095259;28;20236;-69
2023/12/17 05:59:07;;;;;;;25.67;15.27;;;8.70;99.90;;;;;;5094377;28;20261;-68
2023/12/17 06:01:33;;;;;;;28.07;15.73;;;8.70;99.90;;;;;;5094976;28;20526;-68
2023/12/17 06:03:58;;;;;;;24.97;16.93;;;8.70;99.90;;;;;;5094806;28;20643;-68
2023/12/17 06:06:24;;;;;;;25.37;17.40;;;8.70;99.90;;;;;;5095259;28;20179;-68
2023/12/17 06:08:49;;;;;;;31.10;19.53;;;8.80;99.90;;;;;;5095176;28;20708;-69
2023/12/17 06:11:18;;;;;;;28.83;18.60;;;8.80;99.90;;;;;;5094989;28;20620;-67
2023/12/17 06:13:44;;;;;;;32.03;19.40;;;8.80;99.90;;;;;;5095012;28;20164;-69
2023/12/17 06:16:10;;;;;;;32.67;19.90;;;8.80;99.90;;;;;;5095006;28;20176;-68
2023/12/17 06:18:36;;;;;;;33.37;21.10;;;8.70;99.90;;;;;;5094878;28;20270;-67
2023/12/17 06:21:02;;;;;;;35.77;20.93;;;8.70;99.90;;;;;;5094711;28;20727;-68
2023/12/17 06:23:27;;;;;;;38.43;21.27;;;8.70;99.90;;;;;;5094763;28;20301;-67
2023/12/17 06:25:53;;;;;;;35.47;22.20;;;8.70;99.90;;;;;;5094525;28;20529;-68
2023/12/17 06:28:23;;;;;;;33.67;21.10;;;8.70;99.90;;;;;;5094644;28;20227;-68
2023/12/17 06:30:49;;;;;;;33.33;21.43;;;8.70;99.90;;;;;;5094584;28;20239;-68
2023/12/17 06:33:14;;;;;;;39.33;22.53;;;8.80;99.90;;;;;;5094411;28;20216;-68
2023/12/17 06:35:40;;;;;;;31.60;19.33;;;8.80;99.90;;;;;;5094811;28;20180;-68
2023/12/17 06:38:06;;;;;;;32.53;18.93;;;8.80;99.90;;;;;;5094371;28;20585;-68
2023/12/17 06:40:32;;;;;;;36.63;21.20;;;8.80;99.90;;;;;;5094555;28;20717;-68
2023/12/17 06:42:57;;;;;;;28.27;18.80;;;8.80;99.90;;;;;;5094367;28;20182;-68
2023/12/17 06:45:23;;;;;;;30.27;18.97;;;8.80;99.90;;;;;;5094577;28;20179;-69
2023/12/17 06:47:49;;;;;;;29.87;18.63;;;8.70;99.90;;;;;;5094063;28;20273;-69
2023/12/17 06:50:15;;;;;;;28.80;18.87;;;8.80;99.90;;;;;;5093904;28;20234;-70
2023/12/17 06:52:40;;;;;;;32.83;17.63;;;8.70;99.90;;;;;;5093751;28;20194;-69
2023/12/17 06:55:07;;;;;;;31.37;17.77;;;8.80;99.90;;;;;;5094430;28;20179;-69
2023/12/17 06:57:32;;;;;;;32.40;17.93;;;8.80;99.90;;;;;;5093851;28;20164;-69
2023/12/17 06:59:58;;;;;;;29.33;17.13;;;8.80;99.90;;;;;;5093995;28;20527;-68
2023/12/17 07:02:24;;;;;;;29.53;17.07;;;8.80;99.90;;;;;;5093707;28;20210;-69
2023/12/17 07:04:49;;;;;;;27.37;16.90;;;8.80;99.90;;;;;;5093973;28;20171;-69
2023/12/17 07:07:15;;;;;;;27.63;15.47;;;8.80;99.90;;;;;;5093633;28;20172;-68
2023/12/17 07:09:40;;;;;;;33.47;16.33;;;8.80;99.90;;;;;;5093590;28;20298;-67
2023/12/17 07:12:06;;;;;;;29.87;16.00;;;8.60;99.90;;;;;;5093891;28;20236;-69
2023/12/17 07:14:32;;;;;;;25.00;15.97;;;8.60;99.90;;;;;;5093457;28;20320;-69
2023/12/17 07:16:57;;;;;;;27.83;15.83;;;8.50;99.90;;;;;;5093656;28;20591;-69
2023/12/17 07:19:23;;;;;;;30.57;16.80;;;8.50;99.90;;;;;;5093591;28;20175;-67
2023/12/17 07:21:48;;;;;;;30.83;17.00;;;8.50;99.90;;;;;;5075376;28;20183;-69
2023/12/17 07:24:14;;;;;;;30.33;17.33;;;8.60;99.90;;;;;;5093618;28;20183;-69
2023/12/17 07:26:40;;;;;;;35.00;18.27;;;8.60;99.90;;;;;;5093101;28;20219;-69
2023/12/17 07:29:05;;;;;;;39.43;19.90;;;8.70;99.90;;;;;;5093638;28;20233;-69
2023/12/17 07:31:31;;;;;;;46.17;20.63;;;8.70;99.90;;;;;;5093351;28;20179;-69
2023/12/17 07:34:16;;;;;;;41.90;21.90;;;8.60;99.90;;;;;;5078450;28;20279;-69
2023/12/17 07:36:42;;;;;;;48.40;22.63;;;8.60;99.90;;;;;;5093369;28;20172;-69
2023/12/17 07:39:07;;;;;;;48.67;22.50;;;8.60;99.90;;;;;;5093221;28;20183;-69
2023/12/17 07:41:33;;;;;;;44.07;22.70;;;8.70;99.90;;;;;;5092940;28;20249;-69
2023/12/17 07:43:58;;;;;;;47.17;22.97;;;8.60;99.90;;;;;;5093366;28;20218;-69
2023/12/17 07:46:24;;;;;;;51.57;22.40;;;8.60;99.90;;;;;;5093197;28;20164;-68
2023/12/17 07:48:50;;;;;;;54.40;24.10;;;8.50;99.90;;;;;;5092818;28;20171;-69
2023/12/17 07:51:16;;;;;;;54.17;24.70;;;8.40;99.90;;;;;;5092890;28;20208;-70
2023/12/17 07:53:41;;;;;;;53.93;25.97;;;8.40;99.90;;;;;;5093355;28;20180;-68
2023/12/17 07:56:10;;;;;;;43.07;24.23;;;8.40;99.90;;;;;;5092866;28;20258;-70
2023/12/17 07:58:35;;;;;;;55.70;25.03;;;8.20;99.90;;;;;;5093214;28;20176;-68
2023/12/17 08:01:01;;;;;;;42.63;21.07;;;8.20;99.90;;;;;;5092552;28;20619;-68
2023/12/17 08:03:27;;;;;;;41.53;21.40;;;8.10;99.90;;;;;;5092853;28;20168;-68
2023/12/17 08:05:52;;;;;;;51.93;23.53;;;8.00;99.90;;;;;;5092438;28;20610;-68
2023/12/17 08:08:22;;;;;;;49.20;24.47;;;8.00;99.90;;;;;;5092883;28;20180;-68
2023/12/17 08:10:47;;;;;;;46.97;24.20;;;7.90;99.90;;;;;;5092748;28;20211;-69
2023/12/17 08:13:13;;;;;;;51.80;24.93;;;8.00;99.90;;;;;;5092930;28;20535;-69
2023/12/17 08:15:38;;;;;;;43.37;22.33;;;7.90;99.90;;;;;;5092904;28;20180;-69
2023/12/17 08:18:04;;;;;;;45.17;24.37;;;7.90;99.90;;;;;;5093062;28;20226;-68
2023/12/17 08:20:29;;;;;;;40.23;22.17;;;7.80;99.90;;;;;;5092852;28;20177;-69
2023/12/17 08:22:55;;;;;;;45.70;22.47;;;7.80;99.90;;;;;;5093073;28;20221;-69
2023/12/17 08:25:21;;;;;;;49.13;21.60;;;7.70;99.90;;;;;;5092638;28;20176;-69
2023/12/17 08:27:47;;;;;;;52.47;22.60;;;7.60;99.90;;;;;;5092423;28;20227;-68
2023/12/17 08:30:12;;;;;;;42.10;21.10;;;7.60;99.90;;;;;;5074438;28;20295;-68
2023/12/17 08:32:38;;;;;;;40.70;20.43;;;7.70;99.90;;;;;;5093209;28;20180;-69
2023/12/17 08:35:04;;;;;;;42.03;19.23;;;7.70;99.90;;;;;;5092744;28;20164;-69
2023/12/17 08:37:30;;;;;;;40.77;20.03;;;7.70;99.90;;;;;;5093012;28;20259;-68
2023/12/17 08:39:56;;;;;;;35.70;19.20;;;7.80;99.90;;;;;;5091692;28;20255;-68
2023/12/17 08:42:23;;;;;;;32.93;16.17;;;8.10;99.90;;;;;;5092918;28;20179;-69
2023/12/17 08:44:49;;;;;;;31.23;16.20;;;8.20;99.90;;;;;;5092670;28;20189;-69
2023/12/17 08:47:15;;;;;;;35.00;17.07;;;8.50;99.90;;;;;;5092776;28;20696;-69
2023/12/17 08:49:41;;;;;;;25.50;14.87;;;8.90;99.90;;;;;;5092307;28;20211;-68
2023/12/17 08:52:07;;;;;;;28.97;14.07;;;9.20;99.90;;;;;;5092615;28;20172;-69
2023/12/17 08:54:32;;;;;;;24.27;14.37;;;9.50;99.90;;;;;;5092590;28;20183;-69
2023/12/17 08:56:58;;;;;;;25.83;13.57;;;9.80;99.90;;;;;;5092693;28;20636;-70
2023/12/17 08:59:23;;;;;;;26.23;14.00;;;10.20;99.90;;;;;;5091566;28;20172;-70
2023/12/17 09:01:49;;;;;;;20.93;12.90;;;10.90;99.90;;;;;;5092294;28;20180;-69
2023/12/17 09:04:15;;;;;;;20.33;11.53;;;11.20;99.90;;;;;;5092661;28;20180;-69
2023/12/17 09:06:44;;;;;;;21.17;12.70;;;11.40;99.90;;;;;;5092324;28;20518;-69
2023/12/17 09:09:12;;;;;;;21.70;12.63;;;11.70;99.90;;;;;;5092643;28;20203;-69
2023/12/17 09:11:38;;;;;;;21.80;12.93;;;12.10;99.90;;;;;;5092542;28;20200;-68
2023/12/17 09:14:04;;;;;;;24.30;12.23;;;12.40;99.90;;;;;;5091751;28;20169;-69
2023/12/17 09:16:30;;;;;;;23.33;12.77;;;12.20;99.90;;;;;;5093900;28;20195;-69
2023/12/17 09:18:56;;;;;;;23.03;11.13;;;12.00;99.90;;;;;;5077991;28;20195;-69
2023/12/17 09:21:21;;;;;;;20.57;12.20;;;12.10;99.90;;;;;;5095571;28;20172;-69
2023/12/17 09:23:47;;;;;;;20.53;11.37;;;12.20;99.90;;;;;;5096039;28;20184;-69
2023/12/17 09:26:13;;;;;;;18.00;10.57;;;12.20;99.90;;;;;;5095453;28;20172;-69
2023/12/17 09:28:39;;;;;;;19.73;11.40;;;12.30;99.90;;;;;;5094699;28;20194;-69
2023/12/17 09:31:08;;;;;;;16.97;10.93;;;13.00;99.90;;;;;;5095750;28;20206;-71
2023/12/17 09:33:35;;;;;;;20.07;10.70;;;12.90;99.90;;;;;;5096040;28;20164;-70
2023/12/17 09:36:00;;;;;;;17.60;10.63;;;13.00;99.90;;;;;;5095187;28;20184;-69
2023/12/17 09:38:26;;;;;;;17.13;10.57;;;13.30;99.90;;;;;;5095762;28;20313;-70
2023/12/17 09:40:52;;;;;;;19.77;10.50;;;13.80;99.90;;;;;;5094885;28;20207;-70
2023/12/17 09:43:20;;;;;;;15.63;10.03;;;14.30;99.90;;;;;;5095196;28;20522;-69
2023/12/17 09:45:46;;;;;;;14.65;9.45;;;14.60;99.90;;;;;;5095848;28;20218;-69
2023/12/17 09:48:11;;;;;;;13.32;9.45;;;14.80;99.90;;;;;;5095657;28;20210;-70
2023/12/17 09:50:37;;;;;;;18.08;10.13;;;14.40;99.90;;;;;;5094787;28;20286;-71
2023/12/17 09:53:02;;;;;;;17.08;9.73;;;14.50;99.90;;;;;;5095324;28;20178;-69
2023/12/17 09:55:28;;;;;;;17.35;9.38;;;14.40;99.90;;;;;;5094840;28;20180;-70
2023/12/17 09:57:54;;;;;;;16.33;9.35;;;14.30;99.90;;;;;;5060312;28;20222;-69
2023/12/17 10:00:19;;;;;;;13.48;8.90;;;14.10;99.90;;;;;;5094724;28;20179;-70
2023/12/17 10:02:45;;;;;;;18.37;9.13;;;14.00;99.90;;;;;;5094983;28;20707;-69
2023/12/17 10:05:10;;;;;;;16.85;9.95;;;13.20;99.90;;;;;;5094979;28;20183;-69
2023/12/17 10:07:37;;;;;;;16.75;9.25;;;13.70;99.90;;;;;;5095477;28;20168;-69
2023/12/17 10:10:07;;;;;;;16.48;9.23;;;13.70;99.90;;;;;;5093924;28;20204;-70
2023/12/17 10:12:32;;;;;;;15.90;8.50;;;13.70;99.90;;;;;;5094563;28;20160;-69
2023/12/17 10:14:58;;;;;;;13.38;8.50;;;14.00;99.90;;;;;;5094536;28;20526;-69
2023/12/17 10:17:24;;;;;;;18.52;8.82;;;13.90;99.90;;;;;;5094745;28;20200;-69
2023/12/17 10:19:52;;;;;;;14.63;8.38;;;13.90;99.90;;;;;;5094473;28;20196;-69
2023/12/17 10:22:21;;;;;;;15.90;7.90;;;13.90;99.90;;;;;;5094445;28;20172;-69
2023/12/17 10:24:48;;;;;;;14.60;8.30;;;13.90;99.90;;;;;;5093505;28;20220;-69
2023/12/17 10:27:15;;;;;;;15.32;7.88;;;13.60;99.90;;;;;;5093208;28;20236;-71
2023/12/17 10:29:42;;;;;;;11.82;7.22;;;13.80;99.90;;;;;;5094923;28;20192;-70
2023/12/17 10:32:09;;;;;;;17.00;8.25;;;13.60;99.90;;;;;;5094449;28;20213;-70
2023/12/17 10:34:36;;;;;;;13.60;7.05;;;13.60;99.90;;;;;;5094725;28;20172;-69
2023/12/17 10:37:03;;;;;;;11.75;7.38;;;13.60;99.90;;;;;;5093910;28;20229;-71
2023/12/17 10:39:31;;;;;;;9.93;7.47;;;14.00;99.90;;;;;;5093708;28;20184;-71
2023/12/17 10:41:58;;;;;;;16.15;7.38;;;14.10;99.90;;;;;;5094540;28;20168;-70
2023/12/17 10:44:25;;;;;;;14.30;7.40;;;13.80;99.90;;;;;;5094437;28;20176;-70
2023/12/17 10:46:53;;;;;;;12.47;7.63;;;13.40;99.90;;;;;;5094503;28;20179;-70
2023/12/17 10:49:19;;;;;;;12.25;7.32;;;12.90;99.90;;;;;;5093934;28;20172;-70
2023/12/17 10:51:46;;;;;;;15.65;7.40;;;13.40;99.90;;;;;;5093637;28;20168;-71
2023/12/17 10:54:12;;;;;;;14.38;7.10;;;13.80;99.90;;;;;;5094072;28;20183;-70
2023/12/17 10:56:51;;;;;;;13.02;7.35;;;14.20;99.90;;;;;;5094081;28;20168;-70
2023/12/17 10:59:27;;;;;;;11.52;6.88;;;13.70;99.90;;;;;;5092362;28;20571;-71
2023/12/17 11:01:55;;;;;;;12.55;6.28;;;13.90;99.90;;;;;;5093598;28;20210;-69
2023/12/17 11:04:22;;;;;;;18.15;6.22;;;14.30;99.90;;;;;;5093903;28;20251;-71
2023/12/17 11:06:48;;;;;;;9.70;6.13;;;13.90;99.70;;;;;;5094002;28;20217;-70
2023/12/17 11:09:15;;;;;;;11.18;6.70;;;13.70;99.90;;;;;;5093473;28;20168;-70
2023/12/17 11:11:41;;;;;;;12.00;6.90;;;13.70;99.90;;;;;;5093804;28;20178;-69
2023/12/17 11:14:11;;;;;;;10.07;6.90;;;13.80;99.90;;;;;;5093985;28;20186;-70
2023/12/17 11:16:39;;;;;;;11.10;6.28;;;14.20;99.90;;;;;;5093467;28;20214;-70
2023/12/17 11:19:05;;;;;;;9.98;6.40;;;13.80;99.90;;;;;;5093412;28;20174;-68
2023/12/17 11:21:32;;;;;;;9.75;6.30;;;13.90;99.90;;;;;;5093781;28;20639;-69
2023/12/17 11:23:58;;;;;;;11.48;6.32;;;13.70;99.90;;;;;;5093242;28;20160;-69
2023/12/17 11:26:24;;;;;;;10.23;6.50;;;13.70;99.90;;;;;;5093075;28;20223;-70
2023/12/17 11:28:49;;;;;;;10.95;6.53;;;13.90;99.90;;;;;;5093074;28;20168;-70
2023/12/17 11:31:15;;;;;;;13.80;7.03;;;13.70;99.90;;;;;;5093521;28;20230;-71
2023/12/17 11:33:42;;;;;;;13.43;7.00;;;13.40;99.90;;;;;;5093478;28;20239;-71
2023/12/17 11:36:10;;;;;;;16.30;8.07;;;13.50;99.90;;;;;;5093492;28;20167;-70
2023/12/17 11:38:36;;;;;;;9.20;6.90;;;13.50;99.90;;;;;;5092670;28;20192;-70
2023/12/17 11:41:03;;;;;;;12.52;7.55;;;13.50;99.90;;;;;;5092470;28;20179;-69
2023/12/17 11:43:29;;;;;;;11.07;7.60;;;13.00;99.90;;;;;;5075695;28;20175;-70
2023/12/17 11:45:55;;;;;;;18.58;9.43;;;13.10;99.90;;;;;;5093477;28;20164;-71
2023/12/17 11:48:21;;;;;;;15.25;7.95;;;13.40;99.90;;;;;;5093016;28;20219;-69
2023/12/17 11:50:52;;;;;;;20.10;10.65;;;13.70;99.90;;;;;;5092652;28;20302;-70
2023/12/17 11:53:19;;;;;;;19.08;9.68;;;14.10;99.90;;;;;;5093176;28;20164;-71
2023/12/17 11:55:52;;;;;;;15.10;8.40;;;14.50;99.90;;;;;;5093271;28;20238;-70
2023/12/17 11:58:20;;;;;;;13.07;8.15;;;14.50;99.10;;;;;;5074685;28;20160;-71
2023/12/17 12:01:06;;;;;;;12.00;7.97;;;14.80;99.50;;;;;;5093127;28;20199;-70
2023/12/17 12:03:31;;;;;;;11.07;7.50;;;14.20;99.30;;;;;;5092451;28;20164;-70
2023/12/17 12:05:59;;;;;;;10.40;8.13;;;14.40;99.60;;;;;;5074355;28;20266;-70
2023/12/17 12:08:26;;;;;;;13.82;8.07;;;14.10;99.60;;;;;;5093129;28;20695;-69
2023/12/17 12:10:52;;;;;;;12.80;7.50;;;14.00;99.90;;;;;;5092444;28;20234;-71
2023/12/17 12:13:18;;;;;;;15.93;8.38;;;14.00;99.80;;;;;;5092974;28;20222;-70
2023/12/17 12:15:43;;;;;;;11.23;7.53;;;13.70;99.90;;;;;;5092805;28;20263;-70
2023/12/17 12:18:20;;;;;;;14.95;7.50;;;13.40;99.90;;;;;;5092808;28;20350;-70
2023/12/17 12:20:45;;;;;;;11.15;6.78;;;13.40;99.90;;;;;;5092447;28;20172;-70
2023/12/17 12:23:11;;;;;;;10.13;7.32;;;13.50;99.90;;;;;;5093139;28;20217;-70
2023/12/17 12:25:40;;;;;;;11.70;7.85;;;13.60;99.90;;;;;;5093136;28;20257;-69
2023/12/17 12:28:21;;;;;;;15.15;7.95;;;13.50;99.90;;;;;;5092441;28;20238;-71
2023/12/17 12:30:47;;;;;;;15.95;8.55;;;13.20;99.90;;;;;;5092783;28;20228;-70